Etusivu
METAR-TAF:

METAR-TAF

Lentoasemat :

Worthington Municipal Airport

Worthington, Minnesota, Yhdysvallat

Leveyspiiri: 43-39N, Pituuspiiri: 095-35W, korkeus merenpinnasta: 480 m

Tämänhetkinen sää

Tämä raportti tehtiin 28 minuuttia sitten, kello 17.56 UTC
Tuuli 9 kn pohjoisen/luoteesta
Lämpötila 2°C
Kosteus 64%
Ilmanpaine 1013 hPa
Näkyvyys: 16.1 km
Hajonneita pilviä 1600 ft:n korkeudessa
Hajonneita pilviä 3600 ft:n korkeudessa
Pilvistä 4700 ft:n korkeudessa
heikkoa sadetta

METAR: KOTG 131756Z AUTO 34009KT 10SM -RA BKN016 BKN036 OVC047 02/M04 A2991 RMK AO2 RAB56 SLP150 P0000 60000 T00171044 10017 21033 53015 FZRANO

Aika: 12:24 (18:24 UTC)


TAF: puuttuu

Säähavainnot ja -ennusteet yli 4000 lentoasemalta (METAR- ja TAF-raportit).

Käytössä olevat sääasemat on merkitty karttaan keltaisilla ja punaisilla pisteillä.

Aseta hiiri pisteen päälle nähdäksesi sääaseman nimen.

Klikkaa sitten nähdäksesi säähavainnot ja -ennusteet.

Kartan vaihtaminen: klikkaa mustalla rastilla varustettuja vihreitä pisteitä, niin voit zoomata sisään; viivalla varustettua vihreää pistettä, niin voit zoomata ulos tai vihreitä nuolia, niin pääset viereisille kartoille.


METAR-TAF: